Time;durP1;ratioP1;P1;durP2;ratioP2;P2;SDS_P1;SDS_P2;PMS_P1;PMS_P2;Temp;Humidity;BMP_temperature;BMP_pressure;BME280_temperature;BME280_humidity;BME280_pressure;Samples;Min_cycle;Max_cycle;Signal;HPM_P1;HPM_P2
2023/09/01 00:00:50;;;;;;;;;1.00;1.00;;;;;24.12;100.00;100634.06;2092992;28;46730;-51
2023/09/01 00:01:51;;;;;;;;;0.00;0.00;;;;;24.12;100.00;100630.50;2088707;28;46333;-55
2023/09/01 00:02:51;;;;;;;;;0.00;0.00;;;;;24.12;100.00;100627.78;2087202;28;46438;-51
2023/09/01 00:03:51;;;;;;;;;3.00;2.67;;;;;24.13;100.00;100635.78;2100796;28;46327;-55
2023/09/01 00:04:52;;;;;;;;;1.00;1.00;;;;;24.25;100.00;100633.97;2103791;28;46340;-53
2023/09/01 00:05:52;;;;;;;;;0.33;0.00;;;;;24.26;100.00;100639.25;2104568;28;46251;-53
2023/09/01 00:06:52;;;;;;;;;1.67;1.67;;;;;24.27;100.00;100627.44;2104289;28;45529;-51
2023/09/01 00:07:53;;;;;;;;;1.00;1.00;;;;;24.28;100.00;100631.88;2105846;27;46402;-53
2023/09/01 00:08:53;;;;;;;;;2.00;2.00;;;;;24.30;100.00;100638.06;2122098;27;46049;-52
2023/09/01 00:09:53;;;;;;;;;2.00;1.00;;;;;24.32;100.00;100640.66;2121927;27;46596;-53
2023/09/01 00:10:54;;;;;;;;;0.67;0.67;;;;;24.31;100.00;100630.81;2121900;27;45900;-54
2023/09/01 00:11:54;;;;;;;;;0.00;0.00;;;;;24.32;100.00;100629.81;2122195;27;45641;-54
2023/09/01 00:12:56;;;;;;;;;1.00;1.00;;;;;24.32;100.00;100627.97;2121479;27;46522;-52
2023/09/01 00:13:56;;;;;;;;;0.75;0.75;;;;;24.32;100.00;100627.09;2121722;27;45680;-53
2023/09/01 00:14:56;;;;;;;;;0.00;0.00;;;;;24.31;100.00;100623.53;2121687;27;46466;-50
2023/09/01 00:15:57;;;;;;;;;0.67;0.67;;;;;24.31;100.00;100630.81;2122674;27;46838;-53
2023/09/01 00:16:57;;;;;;;;;0.00;0.00;;;;;24.31;100.00;100618.09;2120147;27;46718;-52
2023/09/01 00:17:58;;;;;;;;;7.33;6.33;;;;;24.30;100.00;100624.53;2121061;27;46427;-52
2023/09/01 00:18:58;;;;;;;;;3.67;3.67;;;;;24.31;100.00;100622.66;2122407;27;46753;-53
2023/09/01 00:19:58;;;;;;;;;4.67;4.33;;;;;24.31;100.00;100620.81;2121690;27;46843;-53
2023/09/01 00:21:05;;;;;;;;;35.00;30.25;;;;;24.32;100.00;100627.97;2122040;27;46444;-52
2023/09/01 00:22:06;;;;;;;;;24.20;24.20;;;;;24.32;100.00;100636.09;2121575;27;46831;-55
2023/09/01 00:23:06;;;;;;;;;20.00;18.00;;;;;24.33;100.00;100629.69;2121817;27;45885;-52
2023/09/01 00:24:07;;;;;;;;;17.33;17.33;;;;;24.33;100.00;100628.81;2121879;27;46644;-53
2023/09/01 00:25:08;;;;;;;;;18.25;17.50;;;;;24.33;100.00;100621.56;2121660;27;46757;-54
2023/09/01 00:26:08;;;;;;;;;8.67;7.00;;;;;24.34;100.00;100623.28;2121384;27;46272;-52
2023/09/01 00:27:09;;;;;;;;;2.67;2.00;;;;;24.34;100.00;100630.56;2121906;27;46550;-54
2023/09/01 00:28:09;;;;;;;;;4.67;3.33;;;;;24.33;100.00;100626.13;2121699;27;46485;-54
2023/09/01 00:29:09;;;;;;;;;1.67;1.67;;;;;24.32;100.00;100622.53;2121582;27;46812;-53
2023/09/01 00:30:10;;;;;;;;;1.33;1.33;;;;;24.32;100.00;100624.41;2129497;27;45944;-55
2023/09/01 00:31:10;;;;;;;;;1.50;1.50;;;;;24.31;100.00;100619.97;2123369;27;45508;-52
2023/09/01 00:32:11;;;;;;;;;4.00;2.00;;;;;24.31;100.00;100628.09;2111778;27;46057;-55
2023/09/01 00:33:11;;;;;;;;;2.00;2.00;;;;;24.32;100.00;100621.69;2112726;27;46518;-53
2023/09/01 00:34:12;;;;;;;;;3.00;3.00;;;;;24.32;100.00;100627.09;2112170;27;46291;-53
2023/09/01 00:35:13;;;;;;;;;4.00;4.00;;;;;24.30;100.00;100621.81;2104022;27;46335;-51
2023/09/01 00:36:13;;;;;;;;;4.33;2.67;;;;;24.30;100.00;100624.53;2109007;27;47076;-54
2023/09/01 00:37:13;;;;;;;;;1.33;1.33;;;;;24.31;100.00;100625.38;2117083;27;46208;-54
2023/09/01 00:38:13;;;;;;;;;5.00;3.67;;;;;24.30;100.00;100624.53;2113181;27;46739;-52
2023/09/01 00:39:14;;;;;;;;;7.00;7.00;;;;;24.30;100.00;100626.38;2119551;27;46530;-53
2023/09/01 00:40:14;;;;;;;;;4.00;4.00;;;;;24.31;100.00;100626.25;2121822;27;46077;-53
2023/09/01 00:41:14;;;;;;;;;8.00;8.00;;;;;24.30;100.00;100623.66;2121091;27;46540;-50
2023/09/01 00:42:15;;;;;;;;;18.50;18.50;;;;;24.31;100.00;100614.53;2120871;27;46373;-54
2023/09/01 00:43:15;;;;;;;;;7.00;6.00;;;;;24.29;100.00;100611.91;2123278;27;46605;-54
2023/09/01 00:44:16;;;;;;;;;10.67;9.67;;;;;24.31;100.00;100630.81;2114237;27;46635;-54
2023/09/01 00:45:16;;;;;;;;;8.67;7.67;;;;;24.31;100.00;100628.09;2113954;27;46755;-54
2023/09/01 00:46:17;;;;;;;;;11.67;11.67;;;;;24.30;100.00;100621.81;2122941;27;46570;-55
2023/09/01 00:47:17;;;;;;;;;8.00;5.33;;;;;24.30;100.00;100624.53;2120904;27;46613;-52
2023/09/01 00:48:18;;;;;;;;;4.00;3.00;;;;;24.30;100.00;100629.94;2108166;27;45613;-55
2023/09/01 00:49:19;;;;;;;;;3.33;3.00;;;;;24.31;100.00;100625.38;2116091;27;46219;-55
2023/09/01 00:50:19;;;;;;;;;3.00;2.00;;;;;24.24;100.00;100624.97;2122151;27;46269;-53
2023/09/01 00:51:19;;;;;;;;;4.33;4.00;;;;;24.24;100.00;100627.69;2114718;27;46499;-54
2023/09/01 00:52:20;;;;;;;;;5.67;4.67;;;;;24.24;100.00;100624.09;2121738;27;46759;-55
2023/09/01 00:53:21;;;;;;;;;11.00;11.00;;;;;24.24;100.00;100632.22;2122960;27;47076;-52
2023/09/01 00:54:21;;;;;;;;;13.50;13.00;;;;;24.24;100.00;100633.09;2123093;27;46560;-52
2023/09/01 00:55:22;;;;;;;;;20.50;19.25;;;;;24.23;100.00;100630.50;2123025;27;45644;-55
2023/09/01 00:56:22;;;;;;;;;22.50;19.75;;;;;24.22;100.00;100626.94;2122566;27;46266;-54
2023/09/01 00:57:23;;;;;;;;;8.33;8.00;;;;;24.23;100.00;100628.66;2123543;27;45550;-52
2023/09/01 00:58:25;;;;;;;;;12.67;11.33;;;;;24.22;100.00;100623.38;2123333;27;45461;-54
2023/09/01 00:59:25;;;;;;;;;15.50;13.75;;;;;24.20;100.00;100626.19;2123074;27;46459;-54
2023/09/01 01:00:27;;;;;;;;;9.00;8.00;;;;;24.21;100.00;100637.91;2122656;27;46793;-53
2023/09/01 01:01:28;;;;;;;;;6.50;6.25;;;;;24.20;100.00;100633.47;2123099;27;46837;-53
2023/09/01 01:02:28;;;;;;;;;16.25;16.25;;;;;24.21;100.00;100636.06;2121404;27;46503;-51
2023/09/01 01:03:29;;;;;;;;;11.00;10.33;;;;;24.22;100.00;100634.22;2114140;27;45695;-51
2023/09/01 01:04:29;;;;;;;;;9.67;9.00;;;;;24.21;100.00;100632.50;2114584;27;46257;-50
2023/09/01 01:05:45;;;;;;;;;5.00;5.00;;;;;24.22;100.00;100632.38;2122628;27;46927;-51
2023/09/01 01:07:06;;;;;;;;;4.50;4.25;;;;;24.22;100.00;100628.78;2122714;27;46987;-53
2023/09/01 01:08:23;;;;;;;;;18.00;18.00;;;;;24.21;100.00;100622.50;2122720;27;46810;-52
2023/09/01 01:09:40;;;;;;;;;5.25;5.25;;;;;24.23;100.00;100627.81;2123317;27;46734;-49
2023/09/01 01:10:58;;;;;;;;;7.25;7.00;;;;;24.21;100.00;100633.34;2114673;27;47003;-52
2023/09/01 01:12:05;;;;;;;;;6.50;6.50;;;;;24.21;100.00;100629.78;2122464;27;46609;-51
2023/09/01 01:13:10;;;;;;;;;8.50;7.25;;;;;24.20;100.00;100626.19;2122436;27;47089;-52
2023/09/01 01:14:15;;;;;;;;;5.50;4.00;;;;;24.19;100.00;100629.91;2122929;27;46367;-55
2023/09/01 01:15:19;;;;;;;;;1.00;1.00;;;;;24.20;100.00;100626.19;2122565;27;47135;-55
2023/09/01 01:16:23;;;;;;;;;0.00;0.00;;;;;24.20;100.00;100633.47;2123728;27;46580;-51
2023/09/01 01:17:24;;;;;;;;;0.00;0.00;;;;;24.20;100.00;100628.06;2114349;27;45765;-52
2023/09/01 01:18:26;;;;;;;;;1.50;0.50;;;;;24.19;100.00;100620.91;2112620;27;46779;-54
2023/09/01 01:19:47;;;;;;;;;1.50;1.50;;;;;24.18;100.00;100624.59;2122656;27;47039;-54
2023/09/01 01:20:53;;;;;;;;;1.00;1.00;;;;;24.18;100.00;100616.47;2122950;27;46338;-54
2023/09/01 01:21:59;;;;;;;;;1.75;0.00;;;;;24.18;100.00;100622.75;2114872;27;45695;-53
2023/09/01 01:23:16;;;;;;;;;0.00;0.00;;;;;24.17;100.00;100614.75;2111656;27;45783;-54
2023/09/01 01:24:17;;;;;;;;;0.75;0.75;;;;;24.14;100.00;100624.00;2116574;27;46106;-55
2023/09/01 01:25:18;;;;;;;;;1.00;0.00;;;;;24.15;100.00;100620.28;2123289;27;46991;-53
2023/09/01 01:26:19;;;;;;;;;0.00;0.00;;;;;24.14;100.00;100618.56;2122319;27;46396;-52
2023/09/01 01:27:20;;;;;;;;;0.67;0.00;;;;;24.14;100.00;100615.88;2122941;27;46163;-51
2023/09/01 01:28:22;;;;;;;;;0.00;0.00;;;;;24.17;100.00;100615.63;2122791;27;46357;-52
2023/09/01 01:29:22;;;;;;;;;0.75;0.75;;;;;24.16;100.00;100618.44;2121301;27;46583;-55
2023/09/01 01:30:22;;;;;;;;;0.00;0.00;;;;;24.15;100.00;100622.16;2129921;27;46531;-52
2023/09/01 01:31:23;;;;;;;;;0.33;0.00;;;;;24.15;100.00;100623.00;2114133;27;46191;-52
2023/09/01 01:32:23;;;;;;;;;0.00;0.00;;;;;24.16;100.00;100613.88;2114232;27;46181;-55
2023/09/01 01:33:55;;;;;;;;;0.00;0.00;;;;;24.18;100.00;100622.75;2123179;27;46192;-55
2023/09/01 01:35:21;;;;;;;;;0.00;0.00;;;;;24.18;100.00;100614.63;2114958;27;45107;-52
2023/09/01 01:36:42;;;;;;;;;0.00;0.00;;;;;24.18;100.00;100622.75;2124236;27;46411;-52
2023/09/01 01:37:57;;;;;;;;;0.00;0.00;;;;;24.17;100.00;100621.03;2113920;27;47158;-53
2023/09/01 01:39:05;;;;;;;;;0.25;0.25;;;;;24.18;100.00;100616.47;2109572;27;46694;-50
2023/09/01 01:40:08;;;;;;;;;0.00;0.00;;;;;24.18;100.00;100616.47;2114986;27;46894;-52
2023/09/01 01:41:18;;;;;;;;;0.75;0.75;;;;;24.17;100.00;100614.75;2122566;27;46275;-50
2023/09/01 01:42:18;;;;;;;;;0.00;0.00;;;;;24.15;100.00;100612.16;2109946;27;46811;-53
2023/09/01 01:43:23;;;;;;;;;0.00;0.00;;;;;24.15;100.00;100608.59;2112888;27;46494;-52
2023/09/01 01:44:28;;;;;;;;;0.00;0.00;;;;;24.14;100.00;100612.25;2117286;27;47019;-54
2023/09/01 01:45:30;;;;;;;;;1.00;1.00;;;;;24.14;100.00;100605.00;2120697;27;46397;-51
2023/09/01 01:46:33;;;;;;;;;0.00;0.00;;;;;24.13;100.00;100595.13;2123173;27;46576;-52
2023/09/01 01:47:33;;;;;;;;;0.00;0.00;;;;;24.15;100.00;100605.88;2122661;27;46857;-52
2023/09/01 01:48:37;;;;;;;;;1.00;0.00;;;;;24.15;100.00;100604.03;2113413;27;46474;-52
2023/09/01 01:49:37;;;;;;;;;0.00;0.00;;;;;24.13;100.00;100605.13;2105977;27;46777;-51
2023/09/01 01:50:38;;;;;;;;;0.00;0.00;;;;;24.13;100.00;100610.53;2122955;27;45753;-50
2023/09/01 01:51:38;;;;;;;;;0.67;0.00;;;;;24.13;100.00;100608.69;2113594;27;46271;-53
2023/09/01 01:52:38;;;;;;;;;1.00;0.00;;;;;24.11;100.00;100607.09;2105776;27;46420;-50
2023/09/01 01:53:39;;;;;;;;;0.00;0.00;;;;;24.13;100.00;100610.53;2121446;27;45680;-52
2023/09/01 01:54:39;;;;;;;;;1.00;0.00;;;;;24.13;100.00;100605.13;2123122;27;46567;-55
2023/09/01 01:55:39;;;;;;;;;0.67;0.00;;;;;24.12;100.00;100601.53;2122775;27;46092;-55
2023/09/01 01:56:40;;;;;;;;;0.00;0.00;;;;;24.11;100.00;100601.66;2121735;27;46766;-51
2023/09/01 01:57:40;;;;;;;;;2.00;0.00;;;;;24.12;100.00;100601.53;2122918;27;46670;-52
2023/09/01 01:58:41;;;;;;;;;0.00;0.00;;;;;24.11;100.00;100604.38;2122528;27;46866;-54
2023/09/01 01:59:41;;;;;;;;;0.00;0.00;;;;;24.11;100.00;100607.94;2123361;27;45545;-52
2023/09/01 02:00:42;;;;;;;;;0.00;0.00;;;;;24.10;100.00;100608.94;2115537;27;45908;-50
2023/09/01 02:01:42;;;;;;;;;1.00;1.00;;;;;24.10;100.00;100605.38;2121285;27;46372;-52
2023/09/01 02:02:43;;;;;;;;;0.00;0.00;;;;;24.11;100.00;100604.38;2122513;27;47233;-50
2023/09/01 02:03:44;;;;;;;;;0.00;0.00;;;;;24.10;100.00;100608.94;2122993;27;46336;-50
2023/09/01 02:04:44;;;;;;;;;0.00;0.00;;;;;24.08;100.00;100605.50;2122435;27;46944;-52
2023/09/01 02:05:45;;;;;;;;;0.00;0.00;;;;;24.09;100.00;100601.78;2120348;27;45602;-50
2023/09/01 02:06:45;;;;;;;;;0.00;0.00;;;;;24.08;100.00;100600.94;2121040;27;46324;-51
2023/09/01 02:07:45;;;;;;;;;0.00;0.00;;;;;24.10;100.00;100602.66;2113497;27;46334;-51
2023/09/01 02:08:46;;;;;;;;;0.33;0.00;;;;;24.10;100.00;100606.22;2113871;27;46363;-53
2023/09/01 02:09:46;;;;;;;;;0.00;0.00;;;;;24.11;100.00;100597.09;2122973;27;45508;-51
2023/09/01 02:10:48;;;;;;;;;0.00;0.00;;;;;24.11;100.00;100602.53;2122554;27;46880;-51
2023/09/01 02:11:48;;;;;;;;;0.00;0.00;;;;;24.11;100.00;100607.09;2122572;27;46688;-52
2023/09/01 02:12:48;;;;;;;;;2.00;1.00;;;;;24.10;100.00;100606.22;2122487;27;46168;-53
2023/09/01 02:13:49;;;;;;;;;0.00;0.00;;;;;24.09;100.00;100609.94;2114722;27;46452;-53
2023/09/01 02:14:49;;;;;;;;;0.00;0.00;;;;;24.09;100.00;100601.78;2122441;27;46258;-52
2023/09/01 02:15:51;;;;;;;;;0.00;0.00;;;;;24.09;100.00;100599.09;2122842;27;45870;-50
2023/09/01 02:16:52;;;;;;;;;0.00;0.00;;;;;24.07;100.00;100604.63;2122065;27;46559;-53
2023/09/01 02:17:52;;;;;;;;;0.00;0.00;;;;;24.06;100.00;100597.47;2105274;28;45689;-55
2023/09/01 02:18:52;;;;;;;;;0.00;0.00;;;;;24.07;100.00;100603.75;2105498;28;46265;-54
2023/09/01 02:19:53;;;;;;;;;0.00;0.00;;;;;24.07;100.00;100598.34;2121054;27;46834;-50
2023/09/01 02:20:53;;;;;;;;;0.00;0.00;;;;;24.05;100.00;100594.91;2122681;27;45857;-51
2023/09/01 02:21:53;;;;;;;;;0.00;0.00;;;;;24.04;100.00;100595.88;2123113;27;46353;-52
2023/09/01 02:22:54;;;;;;;;;0.00;0.00;;;;;24.04;100.00;100598.59;2121561;27;46587;-54
2023/09/01 02:23:54;;;;;;;;;0.00;0.00;;;;;24.03;100.00;100596.88;2122836;27;46814;-54
2023/09/01 02:24:55;;;;;;;;;0.00;0.00;;;;;24.03;100.00;100594.16;2114284;27;46019;-53
2023/09/01 02:25:56;;;;;;;;;0.00;0.00;;;;;24.04;100.00;100604.88;2113236;27;46282;-54
2023/09/01 02:26:56;;;;;;;;;0.00;0.00;;;;;24.04;100.00;100604.03;2122870;27;46711;-52
2023/09/01 02:27:57;;;;;;;;;0.00;0.00;;;;;24.04;100.00;100595.88;2121371;27;46438;-51
2023/09/01 02:29:00;;;;;;;;;0.33;0.33;;;;;24.04;100.00;100593.19;2122653;27;46091;-51
2023/09/01 02:30:00;;;;;;;;;0.50;0.00;;;;;24.02;100.00;100593.31;2128832;27;46315;-51
2023/09/01 02:31:09;;;;;;;;;0.00;0.00;;;;;24.03;100.00;100595.03;2125063;27;45110;-52
2023/09/01 02:32:09;;;;;;;;;0.00;0.00;;;;;24.03;100.00;100594.16;2122517;27;46844;-50
2023/09/01 02:33:10;;;;;;;;;0.00;0.00;;;;;24.02;100.00;100592.44;2113525;27;45498;-52
2023/09/01 02:34:10;;;;;;;;;1.00;0.00;;;;;24.03;100.00;100594.16;2103799;27;46443;-50
2023/09/01 02:35:10;;;;;;;;;0.00;0.00;;;;;24.01;100.00;100594.28;2113409;27;45885;-52
2023/09/01 02:36:28;;;;;;;;;0.00;0.00;;;;;24.04;100.00;100599.47;2126996;27;46142;-50
2023/09/01 02:37:29;;;;;;;;;0.25;0.00;;;;;24.03;100.00;100607.72;2125452;27;46592;-50
2023/09/01 02:38:30;;;;;;;;;0.00;0.00;;;;;24.02;100.00;100596.00;2122232;27;46597;-54
2023/09/01 02:39:30;;;;;;;;;1.67;0.33;;;;;24.02;100.00;100601.44;2121271;27;46581;-55
2023/09/01 02:40:30;;;;;;;;;0.00;0.00;;;;;24.02;100.00;100596.00;2122343;27;46227;-52
2023/09/01 02:41:31;;;;;;;;;0.00;0.00;;;;;24.02;100.00;100598.72;2122757;27;45584;-53
2023/09/01 02:42:31;;;;;;;;;0.00;0.00;;;;;24.01;100.00;100594.28;2120344;27;45458;-52
2023/09/01 02:43:31;;;;;;;;;0.33;0.00;;;;;24.00;100.00;100592.53;2122093;27;46823;-53
2023/09/01 02:44:32;;;;;;;;;0.00;0.00;;;;;23.99;100.00;100588.09;2122023;27;46657;-55
2023/09/01 02:45:32;;;;;;;;;0.33;0.00;;;;;23.99;100.00;100588.09;2122845;27;46532;-52
2023/09/01 02:46:32;;;;;;;;;0.00;0.00;;;;;23.99;100.00;100596.22;2122821;27;46050;-55
2023/09/01 02:47:33;;;;;;;;;0.33;0.00;;;;;23.99;100.00;100593.53;2121969;27;47018;-51
2023/09/01 02:48:33;;;;;;;;;0.75;0.00;;;;;23.98;100.00;100593.66;2118262;27;46107;-53
2023/09/01 02:49:34;;;;;;;;;0.00;0.00;;;;;23.96;100.00;100598.34;2105363;28;46673;-52
2023/09/01 02:50:34;;;;;;;;;0.00;0.00;;;;;23.94;100.00;100587.63;2111472;27;45782;-52
2023/09/01 02:51:34;;;;;;;;;0.67;0.67;;;;;23.93;100.00;100588.59;2115622;27;45837;-51
2023/09/01 02:52:35;;;;;;;;;0.00;0.00;;;;;23.93;100.00;100594.03;2122787;27;45681;-53
2023/09/01 02:53:37;;;;;;;;;0.00;0.00;;;;;23.93;100.00;100590.47;2122738;27;45613;-52
2023/09/01 02:54:37;;;;;;;;;0.00;0.00;;;;;23.92;100.00;100586.03;2122130;27;45877;-51
2023/09/01 02:55:37;;;;;;;;;0.00;0.00;;;;;23.91;100.00;100592.44;2122363;27;47023;-52
2023/09/01 02:56:38;;;;;;;;;0.00;0.00;;;;;23.92;100.00;100586.88;2120919;27;46114;-52
2023/09/01 02:57:38;;;;;;;;;0.00;0.00;;;;;23.92;100.00;100592.31;2122545;27;46516;-51
2023/09/01 02:58:38;;;;;;;;;0.00;0.00;;;;;23.92;100.00;100589.59;2122121;27;45673;-53
2023/09/01 02:59:39;;;;;;;;;0.00;0.00;;;;;23.94;100.00;100594.88;2122580;27;45608;-54
2023/09/01 03:00:39;;;;;;;;;1.33;0.00;;;;;23.93;100.00;100585.91;2122124;27;46382;-52
2023/09/01 03:01:39;;;;;;;;;0.00;0.00;;;;;23.93;100.00;100587.75;2113389;27;45531;-50
2023/09/01 03:02:42;;;;;;;;;0.00;0.00;;;;;23.94;100.00;100594.88;2113422;27;46378;-50
2023/09/01 03:03:42;;;;;;;;;1.25;0.00;;;;;23.94;100.00;100598.47;2121942;27;47063;-53
2023/09/01 03:04:43;;;;;;;;;0.00;0.00;;;;;23.95;100.00;100597.47;2121358;27;46555;-54
2023/09/01 03:05:43;;;;;;;;;0.00;0.00;;;;;23.96;100.00;100601.03;2122498;27;46271;-54
2023/09/01 03:06:43;;;;;;;;;20.50;16.50;;;;;23.96;100.00;100604.63;2121908;27;46206;-54
2023/09/01 03:07:44;;;;;;;;;17.75;17.75;;;;;23.96;100.00;100601.03;2121686;27;46553;-53
2023/09/01 03:08:44;;;;;;;;;11.00;10.67;;;;;23.96;100.00;100601.91;2122206;27;46030;-55
2023/09/01 03:09:45;;;;;;;;;9.67;9.67;;;;;23.94;100.00;100600.31;2121871;27;46232;-54
2023/09/01 03:10:45;;;;;;;;;4.67;3.33;;;;;23.96;100.00;100603.75;2122454;27;46500;-54
2023/09/01 03:11:45;;;;;;;;;1.00;1.00;;;;;23.96;100.00;100595.63;2115828;27;45631;-52
2023/09/01 03:12:48;;;;;;;;;1.00;1.00;;;;;23.96;100.00;100591.06;2116621;27;46193;-54
2023/09/01 03:13:48;;;;;;;;;0.50;0.50;;;;;23.97;100.00;100600.06;2122418;27;46290;-52
2023/09/01 03:14:48;;;;;;;;;0.00;0.00;;;;;23.97;100.00;100600.91;2111431;27;46224;-49
2023/09/01 03:15:48;;;;;;;;;0.00;0.00;;;;;23.95;100.00;100602.91;2097837;28;46066;-50
2023/09/01 03:16:49;;;;;;;;;0.00;0.00;;;;;23.95;100.00;100599.31;2112153;27;46874;-50
2023/09/01 03:17:49;;;;;;;;;0.00;0.00;;;;;23.93;100.00;100599.44;2118570;27;45224;-51
2023/09/01 03:18:50;;;;;;;;;0.00;0.00;;;;;23.93;100.00;100602.16;2122552;27;45929;-55
2023/09/01 03:19:50;;;;;;;;;0.00;0.00;;;;;23.92;100.00;100594.16;2122130;27;46262;-53
2023/09/01 03:20:53;;;;;;;;;0.00;0.00;;;;;23.91;100.00;100598.72;2121724;27;46260;-54
2023/09/01 03:21:53;;;;;;;;;1.00;0.00;;;;;23.90;100.00;100598.84;2122607;27;46716;-55
2023/09/01 03:22:54;;;;;;;;;0.00;0.00;;;;;23.89;100.00;100592.56;2121825;27;46454;-52
2023/09/01 03:23:54;;;;;;;;;0.00;0.00;;;;;23.88;100.00;100596.22;2122229;27;46376;-54
2023/09/01 03:24:54;;;;;;;;;0.00;0.00;;;;;23.89;100.00;100589.84;2113121;27;45755;-54
2023/09/01 03:25:55;;;;;;;;;0.00;0.00;;;;;23.89;100.00;100595.25;2113364;27;45958;-51
2023/09/01 03:26:56;;;;;;;;;0.00;0.00;;;;;23.89;100.00;100594.41;2122693;27;46127;-52
2023/09/01 03:27:56;;;;;;;;;1.00;0.00;;;;;23.88;100.00;100598.06;2119347;27;46665;-54
2023/09/01 03:28:57;;;;;;;;;0.00;0.00;;;;;23.85;100.00;100593.75;2122123;27;45531;-52
2023/09/01 03:29:57;;;;;;;;;0.00;0.00;;;;;23.85;100.00;100595.59;2128195;27;46835;-52
2023/09/01 03:30:58;;;;;;;;;0.00;0.00;;;;;23.83;100.00;100603.88;2125552;27;46333;-54
2023/09/01 03:31:58;;;;;;;;;0.00;0.00;;;;;23.84;100.00;100599.31;2122161;27;46516;-51
2023/09/01 03:32:58;;;;;;;;;0.00;0.00;;;;;23.84;100.00;100596.59;2121641;27;46365;-54
2023/09/01 03:33:59;;;;;;;;;0.00;0.00;;;;;23.83;100.00;100590.31;2121517;27;46356;-53
2023/09/01 03:35:00;;;;;;;;;0.25;0.25;;;;;23.84;100.00;100589.31;2122512;27;46753;-54
2023/09/01 03:36:02;;;;;;;;;0.00;0.00;;;;;23.85;100.00;100590.19;2122267;27;46833;-53
2023/09/01 03:37:03;;;;;;;;;0.00;0.00;;;;;23.83;100.00;100586.75;2119098;27;45818;-52
2023/09/01 03:38:03;;;;;;;;;0.00;0.00;;;;;23.80;100.00;100587.84;2103460;28;46452;-52
2023/09/01 03:39:07;;;;;;;;;0.00;0.00;;;;;23.78;100.00;100585.25;2104251;28;46187;-54
2023/09/01 03:40:09;;;;;;;;;0.00;0.00;;;;;23.81;100.00;100586.00;2122337;27;45816;-55
2023/09/01 03:41:09;;;;;;;;;0.00;0.00;;;;;23.80;100.00;100584.28;2119799;27;46403;-55
2023/09/01 03:42:10;;;;;;;;;0.00;0.00;;;;;23.83;100.00;100592.16;2121955;27;46899;-55
2023/09/01 03:43:10;;;;;;;;;0.00;0.00;;;;;23.81;100.00;100586.00;2122151;27;45454;-54
2023/09/01 03:44:10;;;;;;;;;0.00;0.00;;;;;23.82;100.00;100591.28;2117599;27;46865;-54
2023/09/01 03:45:11;;;;;;;;;0.00;0.00;;;;;23.80;100.00;100585.13;2121252;27;46243;-54
2023/09/01 03:46:11;;;;;;;;;0.00;0.00;;;;;23.80;100.00;100587.84;2122222;27;46288;-51
2023/09/01 03:47:12;;;;;;;;;0.00;0.00;;;;;23.80;100.00;100598.69;2122463;27;46625;-53
2023/09/01 03:48:12;;;;;;;;;0.50;0.50;;;;;23.79;100.00;100588.84;2121832;27;46763;-54
2023/09/01 03:49:13;;;;;;;;;0.33;0.00;;;;;23.78;100.00;100590.69;2121888;27;46154;-55
2023/09/01 03:50:13;;;;;;;;;0.00;0.00;;;;;23.76;100.00;100586.38;2122313;27;45411;-55
2023/09/01 03:51:17;;;;;;;;;0.00;0.00;;;;;23.77;100.00;100588.97;2118429;27;46218;-54
2023/09/01 03:52:17;;;;;;;;;1.25;0.25;;;;;23.77;100.00;100593.53;2117796;27;45310;-55
2023/09/01 03:53:17;;;;;;;;;1.00;0.00;;;;;23.75;100.00;100587.34;2121179;27;46771;-55
2023/09/01 03:54:18;;;;;;;;;0.00;0.00;;;;;23.75;100.00;100592.75;2121835;27;46158;-54
2023/09/01 03:55:18;;;;;;;;;1.33;1.33;;;;;23.74;100.00;100586.47;2122143;27;46671;-54
2023/09/01 03:56:20;;;;;;;;;1.00;0.00;;;;;23.75;100.00;100587.34;2121621;27;46487;-55
2023/09/01 03:57:20;;;;;;;;;0.00;0.00;;;;;23.74;100.00;100591.88;2122465;27;45583;-54
2023/09/01 03:58:20;;;;;;;;;0.00;0.00;;;;;23.75;100.00;100592.75;2112947;27;45872;-55
2023/09/01 03:59:21;;;;;;;;;0.00;0.00;;;;;23.74;100.00;100586.47;2113401;27;46649;-55
2023/09/01 04:00:22;;;;;;;;;0.00;0.00;;;;;23.74;100.00;100589.19;2117603;27;45112;-54
2023/09/01 04:01:22;;;;;;;;;0.67;0.00;;;;;23.74;100.00;100597.31;2121483;27;46364;-48
2023/09/01 04:02:22;;;;;;;;;0.00;0.00;;;;;23.72;100.00;100583.03;2117350;27;46553;-55
2023/09/01 04:03:23;;;;;;;;;0.00;0.00;;;;;23.71;100.00;100586.72;2122132;27;46437;-55
2023/09/01 04:04:23;;;;;;;;;1.00;0.00;;;;;23.70;100.00;100585.00;2121827;27;45528;-55
2023/09/01 04:05:23;;;;;;;;;0.00;0.00;;;;;23.70;100.00;100586.84;2116544;27;45976;-52
2023/09/01 04:06:24;;;;;;;;;1.00;1.00;;;;;23.69;100.00;100587.84;2122065;27;46528;-53
2023/09/01 04:07:24;;;;;;;;;0.00;0.00;;;;;23.68;100.00;100588.81;2122071;27;46506;-51
2023/09/01 04:08:24;;;;;;;;;0.00;0.00;;;;;23.69;100.00;100585.13;2121780;27;46095;-53
2023/09/01 04:09:25;;;;;;;;;0.00;0.00;;;;;23.69;100.00;100582.41;2121707;27;46588;-55
2023/09/01 04:10:25;;;;;;;;;0.00;0.00;;;;;23.71;100.00;100588.56;2122048;27;45565;-53
2023/09/01 04:11:25;;;;;;;;;0.00;0.00;;;;;23.70;100.00;100587.72;2121667;27;46884;-55
2023/09/01 04:12:25;;;;;;;;;0.67;0.67;;;;;23.71;100.00;100581.31;2122263;27;45424;-55
2023/09/01 04:13:26;;;;;;;;;2.00;0.00;;;;;23.71;100.00;100578.59;2122050;27;45473;-54
2023/09/01 04:14:26;;;;;;;;;0.00;0.00;;;;;23.72;100.00;100580.31;2121379;27;45844;-52
2023/09/01 04:15:27;;;;;;;;;0.00;0.00;;;;;23.73;100.00;100581.19;2122264;27;44943;-55
2023/09/01 04:16:27;;;;;;;;;0.00;0.00;;;;;23.71;100.00;100573.16;2123301;27;46598;-54
2023/09/01 04:17:27;;;;;;;;;0.33;0.00;;;;;23.71;100.00;100575.03;2112532;27;46168;-55
2023/09/01 04:18:28;;;;;;;;;1.67;0.00;;;;;23.68;100.00;100573.41;2105862;28;46332;-53
2023/09/01 04:19:28;;;;;;;;;1.00;1.00;;;;;23.69;100.00;100577.00;2104910;27;46256;-52
2023/09/01 04:20:28;;;;;;;;;0.00;0.00;;;;;23.69;100.00;100574.28;2114082;27;46655;-54
2023/09/01 04:21:29;;;;;;;;;0.67;0.67;;;;;23.68;100.00;100573.41;2122271;27;45801;-54
2023/09/01 04:22:29;;;;;;;;;0.67;0.67;;;;;23.68;100.00;100572.56;2123447;27;46331;-52
2023/09/01 04:23:31;;;;;;;;;0.00;0.00;;;;;23.67;100.00;100574.41;2123377;27;47143;-55
2023/09/01 04:24:32;;;;;;;;;0.25;0.25;;;;;23.67;100.00;100574.41;2123409;27;46888;-57
2023/09/01 04:25:33;;;;;;;;;0.00;0.00;;;;;23.68;100.00;100576.13;2113288;27;46955;-53
2023/09/01 04:26:33;;;;;;;;;0.00;0.00;;;;;23.70;100.00;100576.00;2122026;27;46579;-54
2023/09/01 04:27:33;;;;;;;;;0.00;0.00;;;;;23.69;100.00;100568.88;2122999;27;45601;-53
2023/09/01 04:28:34;;;;;;;;;0.67;0.67;;;;;23.68;100.00;100573.41;2123587;27;46024;-54
2023/09/01 04:29:36;;;;;;;;;0.67;0.00;;;;;23.69;100.00;100571.56;2118962;27;46266;-51
2023/09/01 04:30:37;;;;;;;;;1.00;1.00;;;;;23.68;100.00;100578.84;2117979;27;46449;-54
2023/09/01 04:31:37;;;;;;;;;0.00;0.00;;;;;23.70;100.00;100566.03;2123678;27;46814;-54
2023/09/01 04:32:37;;;;;;;;;0.33;0.00;;;;;23.68;100.00;100569.84;2123147;27;46626;-51
2023/09/01 04:33:38;;;;;;;;;0.00;0.00;;;;;23.71;100.00;100575.03;2123168;27;46588;-51
2023/09/01 04:34:38;;;;;;;;;0.67;0.67;;;;;23.68;100.00;100570.72;2121842;27;46563;-55
2023/09/01 04:35:39;;;;;;;;;0.00;0.00;;;;;23.66;100.00;100575.41;2121439;27;45826;-53
2023/09/01 04:36:40;;;;;;;;;0.00;0.00;;;;;23.67;100.00;100571.69;2130761;27;46359;-54
2023/09/01 04:37:40;;;;;;;;;0.00;0.00;;;;;23.66;100.00;100566.41;2104801;28;46376;-55
2023/09/01 04:38:41;;;;;;;;;1.00;1.00;;;;;23.64;100.00;100574.66;2105133;28;46044;-53
2023/09/01 04:39:41;;;;;;;;;1.00;1.00;;;;;23.62;100.00;100575.72;2123352;27;46495;-53
2023/09/01 04:40:41;;;;;;;;;0.00;0.00;;;;;23.62;100.00;100575.72;2122868;27;45537;-55
2023/09/01 04:41:42;;;;;;;;;1.00;0.00;;;;;23.61;100.00;100579.44;2123374;27;46852;-52
2023/09/01 04:42:42;;;;;;;;;0.00;0.00;;;;;23.58;100.00;100582.38;2123232;27;46668;-53
2023/09/01 04:43:43;;;;;;;;;1.00;1.00;;;;;23.57;100.00;100578.78;2122270;27;45542;-55